Terminal Aerodrome Forecast
Issued by NWS

Home | Current Version | Previous Version | Graphics & Text | Print | Product List | Glossary On
Versions: 1 2 3 4 5 6 7 8 9 10 11 12 13 14 15 16 17 18 19 20 21 22 23 24 25 26 27 28 29 30 31 32 33
000
FTUS43 KLOT 261100
TAFORD
TAF
KORD 261136Z 2612/2718 23007KT P6SM VCTS SCT035 BKN060CB
      TEMPO 2612/2614 3SM TSRA BKN015 OVC035CB
     FM261400 36008KT P6SM VCSH SCT040 BKN250
     FM261700 01007KT P6SM BKN040
     FM262000 03010KT P6SM SCT040 BKN250
     FM270000 06006KT P6SM FEW150 BKN250
     FM270700 03006KT P6SM BKN070 PROB30 2712/2716 5SM TSRA
      BKN040CB=

USA.gov is the U.S. government's official web portal to all federal, state and local government web resources and services.